Peacham, VT (05862)

2:53 AM EDT on August 05, 2015 (GMT -0400)
Northern Skies Observatory | | Change Station
CLOSE
Current Station
Personal Weather Station
Location: Peacham, VT
Elevation: 1250 ft
Nearby Weather Stations

Elev 1250 ft 44.33 °N, 72.17 °W | Updated 3 minutes ago

Partly Cloudy
Partly Cloudy
56.0 °F
Feels Like 56.0 °F
N
0.0
Wind Variable Wind from NNE
Gusts 0.0 mph

Today
High -- | Low -- °F
--% Chance of Precip.
Yesterday
High -- | Low -- °F
Precip. -- in
5:40 AM 8:08 PM
Waning Gibbous, 70% visible
Pressure 29.90 in
Visibility 0.2 miles
Clouds Overcast 100 ft
Dew Point 55 °F
Humidity 97%
Rainfall 0.11 in
Snow Depth Not available.
UV 0 out of 12
Pollen 4.90 out of 12
Air Quality Not available.
Flu Activity Not available.
METAR KCDA 050635Z AUTO 00000KT 1/4SM FG OVC001 14/13 A2990 RMK AO2 T01350130

More Conditions Fewer Conditions

Pressure 29.90 in
Visibility 0.2 miles
Clouds Overcast 100 ft
Dew Point 55 °F
Humidity 97%
Rainfall 0.11 in
Snow Depth Not available.
UV 0 out of 12
Pollen 4.90 out of 12
Air Quality Not available.
Flu Activity Not available.
METAR KCDA 050635Z AUTO 00000KT 1/4SM FG OVC001 14/13 A2990 RMK AO2 T01350130

More Conditions Fewer Conditions

10-Day Weather Forecast

×

Almanac

Astronomy

Aug. 05, 2015 Rise Set
Actual Time
Civil Twilight
Nautical Twilight
Astronomical Twilight
Moon
Length of Visible Light
Length of Day
Tomorrow will be .
, % of the Moon is Illuminated

Today's Extremes

State Highs State Lows

Community

WunderPhotos

Upload Photos

1,844,105 photos uploaded!

WunderBlogs® & News

Nearby

Air Quality

  Air Quality AQ Index Pollutant
Not available.

Snow Depth

Station Depth Elevation

Earthquake Activity

City Distance Mag. Time & Date
Minimum magnitude displayed is 2.5.

Coastal Water Temperatures

Place Temperature

Stations

Nearby Weather Stations

Station Location Temp. Windchill Dew Point Humidity Wind Precip. Elev Updated Type